sensor_id;sensor_type;location;lat;lon;timestamp;pressure;altitude;pressure_sealevel;temperature;humidity
68871;BME280;55906;52.278;6.808;2023-07-29T00:01:34;100533.19;;;20.76;80.88
68871;BME280;55906;52.278;6.808;2023-07-29T00:04:01;100532.56;;;20.64;82.51
68871;BME280;55906;52.278;6.808;2023-07-29T00:06:27;100536.22;;;20.60;82.19
68871;BME280;55906;52.278;6.808;2023-07-29T00:08:54;100543.44;;;20.56;82.05
68871;BME280;55906;52.278;6.808;2023-07-29T00:11:21;100538.19;;;20.52;81.78
68871;BME280;55906;52.278;6.808;2023-07-29T00:13:47;100533.84;;;20.46;81.92
68871;BME280;55906;52.278;6.808;2023-07-29T00:16:16;100540.06;;;20.47;82.21
68871;BME280;55906;52.278;6.808;2023-07-29T00:18:43;100534.91;;;20.36;83.39
68871;BME280;55906;52.278;6.808;2023-07-29T00:21:10;100535.75;;;20.39;82.11
68871;BME280;55906;52.278;6.808;2023-07-29T00:23:37;100536.72;;;20.34;82.00
68871;BME280;55906;52.278;6.808;2023-07-29T00:26:03;100536.78;;;20.31;82.30
68871;BME280;55906;52.278;6.808;2023-07-29T00:28:30;100543.13;;;20.25;82.51
68871;BME280;55906;52.278;6.808;2023-07-29T00:30:57;100538.72;;;20.23;82.44
68871;BME280;55906;52.278;6.808;2023-07-29T00:33:25;100535.22;;;20.19;82.29
68871;BME280;55906;52.278;6.808;2023-07-29T00:35:51;100538.88;;;20.15;82.34
68871;BME280;55906;52.278;6.808;2023-07-29T00:38:18;100534.53;;;20.09;82.95
68871;BME280;55906;52.278;6.808;2023-07-29T00:40:45;100542.50;;;20.11;82.46
68871;BME280;55906;52.278;6.808;2023-07-29T00:43:12;100532.72;;;20.10;82.56
68871;BME280;55906;52.278;6.808;2023-07-29T00:45:38;100531.81;;;20.11;82.83
68871;BME280;55906;52.278;6.808;2023-07-29T00:48:07;100523.84;;;20.09;82.66
68871;BME280;55906;52.278;6.808;2023-07-29T00:50:36;100529.19;;;20.08;82.47
68871;BME280;55906;52.278;6.808;2023-07-29T00:53:03;100537.28;;;20.05;82.30
68871;BME280;55906;52.278;6.808;2023-07-29T00:55:29;100531.06;;;20.03;82.52
68871;BME280;55906;52.278;6.808;2023-07-29T00:57:57;100532.00;;;20.02;82.60
68871;BME280;55906;52.278;6.808;2023-07-29T01:00:23;100526.78;;;19.94;83.21
68871;BME280;55906;52.278;6.808;2023-07-29T01:02:50;100527.84;;;19.84;85.09
68871;BME280;55906;52.278;6.808;2023-07-29T01:05:18;100527.00;;;19.82;83.98
68871;BME280;55906;52.278;6.808;2023-07-29T01:07:49;100526.97;;;19.84;84.36
68871;BME280;55906;52.278;6.808;2023-07-29T01:10:24;100525.22;;;19.83;84.42
68871;BME280;55906;52.278;6.808;2023-07-29T01:12:56;100527.06;;;19.79;83.97
68871;BME280;55906;52.278;6.808;2023-07-29T01:15:26;100526.25;;;19.74;84.42
68871;BME280;55906;52.278;6.808;2023-07-29T01:17:56;100528.06;;;19.72;84.36
68871;BME280;55906;52.278;6.808;2023-07-29T01:20:25;100530.88;;;19.64;84.48
68871;BME280;55906;52.278;6.808;2023-07-29T01:22:53;100535.34;;;19.62;85.45
68871;BME280;55906;52.278;6.808;2023-07-29T01:25:21;100535.41;;;19.59;84.82
68871;BME280;55906;52.278;6.808;2023-07-29T01:27:49;100524.78;;;19.56;85.22
68871;BME280;55906;52.278;6.808;2023-07-29T01:30:17;100526.63;;;19.51;85.75
68871;BME280;55906;52.278;6.808;2023-07-29T01:32:50;100532.84;;;19.48;85.81
68871;BME280;55906;52.278;6.808;2023-07-29T01:35:23;100533.78;;;19.46;85.89
68871;BME280;55906;52.278;6.808;2023-07-29T01:37:53;100529.44;;;19.39;86.88
68871;BME280;55906;52.278;6.808;2023-07-29T01:40:26;100536.56;;;19.38;86.57
68871;BME280;55906;52.278;6.808;2023-07-29T01:42:53;100540.19;;;19.34;87.26
68871;BME280;55906;52.278;6.808;2023-07-29T01:45:23;100535.78;;;19.32;87.94
68871;BME280;55906;52.278;6.808;2023-07-29T01:47:49;100535.72;;;19.35;87.06
68871;BME280;55906;52.278;6.808;2023-07-29T01:50:16;100531.28;;;19.35;87.31
68871;BME280;55906;52.278;6.808;2023-07-29T01:52:43;100519.72;;;19.35;87.23
68871;BME280;55906;52.278;6.808;2023-07-29T01:55:10;100525.94;;;19.35;87.05
68871;BME280;55906;52.278;6.808;2023-07-29T01:57:38;100516.97;;;19.39;86.97
68871;BME280;55906;52.278;6.808;2023-07-29T02:00:06;100506.34;;;19.38;87.35
68871;BME280;55906;52.278;6.808;2023-07-29T02:02:33;100508.09;;;19.39;87.47
68871;BME280;55906;52.278;6.808;2023-07-29T02:05:00;100513.38;;;19.42;86.99
68871;BME280;55906;52.278;6.808;2023-07-29T02:07:26;100507.16;;;19.43;87.32
68871;BME280;55906;52.278;6.808;2023-07-29T02:09:53;100499.13;;;19.43;87.01
68871;BME280;55906;52.278;6.808;2023-07-29T02:12:20;100507.09;;;19.46;87.09
68871;BME280;55906;52.278;6.808;2023-07-29T02:14:48;100500.03;;;19.43;86.99
68871;BME280;55906;52.278;6.808;2023-07-29T02:17:14;100506.25;;;19.44;87.06
68871;BME280;55906;52.278;6.808;2023-07-29T02:19:41;100489.31;;;19.45;86.76
68871;BME280;55906;52.278;6.808;2023-07-29T02:22:08;100503.63;;;19.41;86.89
68871;BME280;55906;52.278;6.808;2023-07-29T02:24:34;100506.38;;;19.35;87.76
68871;BME280;55906;52.278;6.808;2023-07-29T02:27:01;100503.72;;;19.35;88.21
68871;BME280;55906;52.278;6.808;2023-07-29T02:29:28;100500.25;;;19.30;87.83
68871;BME280;55906;52.278;6.808;2023-07-29T02:31:57;100494.84;;;19.33;87.41
68871;BME280;55906;52.278;6.808;2023-07-29T02:34:23;100496.66;;;19.32;87.36
68871;BME280;55906;52.278;6.808;2023-07-29T02:36:50;100494.91;;;19.30;88.21
68871;BME280;55906;52.278;6.808;2023-07-29T02:39:17;100501.16;;;19.29;88.06
68871;BME280;55906;52.278;6.808;2023-07-29T02:41:43;100489.56;;;19.30;87.88
68871;BME280;55906;52.278;6.808;2023-07-29T02:44:10;100495.88;;;19.24;88.71
68871;BME280;55906;52.278;6.808;2023-07-29T02:46:37;100504.78;;;19.25;88.80
68871;BME280;55906;52.278;6.808;2023-07-29T02:49:05;100504.00;;;19.16;90.79
68871;BME280;55906;52.278;6.808;2023-07-29T02:51:31;100503.09;;;19.17;89.81
68871;BME280;55906;52.278;6.808;2023-07-29T02:53:58;100497.63;;;19.27;88.80
68871;BME280;55906;52.278;6.808;2023-07-29T02:56:25;100503.81;;;19.29;89.07
68871;BME280;55906;52.278;6.808;2023-07-29T02:58:51;100491.31;;;19.32;88.43
68871;BME280;55906;52.278;6.808;2023-07-29T03:01:18;100482.47;;;19.29;88.99
68871;BME280;55906;52.278;6.808;2023-07-29T03:03:45;100493.03;;;19.36;88.56
68871;BME280;55906;52.278;6.808;2023-07-29T03:06:14;100493.88;;;19.38;88.88
68871;BME280;55906;52.278;6.808;2023-07-29T03:08:41;100488.50;;;19.40;88.42
68871;BME280;55906;52.278;6.808;2023-07-29T03:11:09;100490.19;;;19.45;88.02
68871;BME280;55906;52.278;6.808;2023-07-29T03:13:36;100492.84;;;19.47;88.48
68871;BME280;55906;52.278;6.808;2023-07-29T03:16:07;100483.91;;;19.51;87.93
68871;BME280;55906;52.278;6.808;2023-07-29T03:18:34;100488.38;;;19.50;88.22
68871;BME280;55906;52.278;6.808;2023-07-29T03:21:00;100491.00;;;19.55;87.97
68871;BME280;55906;52.278;6.808;2023-07-29T03:23:29;100487.41;;;19.56;88.18
68871;BME280;55906;52.278;6.808;2023-07-29T03:25:57;100482.03;;;19.59;87.98
68871;BME280;55906;52.278;6.808;2023-07-29T03:28:24;100498.00;;;19.62;87.95
68871;BME280;55906;52.278;6.808;2023-07-29T03:30:51;100493.47;;;19.66;87.55
68871;BME280;55906;52.278;6.808;2023-07-29T03:33:17;100492.59;;;19.65;87.46
68871;BME280;55906;52.278;6.808;2023-07-29T03:35:44;100501.47;;;19.67;87.46
68871;BME280;55906;52.278;6.808;2023-07-29T03:38:11;100500.72;;;19.59;88.46
68871;BME280;55906;52.278;6.808;2023-07-29T03:40:39;100491.78;;;19.62;88.27
68871;BME280;55906;52.278;6.808;2023-07-29T03:43:06;100490.03;;;19.59;87.83
68871;BME280;55906;52.278;6.808;2023-07-29T03:45:33;100487.47;;;19.50;88.74
68871;BME280;55906;52.278;6.808;2023-07-29T03:48:00;100475.91;;;19.53;88.00
68871;BME280;55906;52.278;6.808;2023-07-29T03:50:28;100478.56;;;19.51;87.95
68871;BME280;55906;52.278;6.808;2023-07-29T03:52:54;100476.78;;;19.52;87.66
68871;BME280;55906;52.278;6.808;2023-07-29T03:55:21;100482.13;;;19.53;87.22
68871;BME280;55906;52.278;6.808;2023-07-29T03:57:49;100489.22;;;19.56;87.17
68871;BME280;55906;52.278;6.808;2023-07-29T04:00:16;100485.66;;;19.55;87.25
68871;BME280;55906;52.278;6.808;2023-07-29T04:02:42;100488.31;;;19.55;87.12
68871;BME280;55906;52.278;6.808;2023-07-29T04:05:10;100482.97;;;19.57;86.89
68871;BME280;55906;52.278;6.808;2023-07-29T04:07:37;100485.63;;;19.57;87.04
68871;BME280;55906;52.278;6.808;2023-07-29T04:10:06;100478.50;;;19.57;86.77
68871;BME280;55906;52.278;6.808;2023-07-29T04:12:33;100474.88;;;19.61;86.58
68871;BME280;55906;52.278;6.808;2023-07-29T04:15:01;100466.94;;;19.57;87.00
68871;BME280;55906;52.278;6.808;2023-07-29T04:17:28;100475.03;;;19.49;87.05
68871;BME280;55906;52.278;6.808;2023-07-29T04:19:54;100459.88;;;19.49;86.56
68871;BME280;55906;52.278;6.808;2023-07-29T04:22:21;100464.41;;;19.46;86.61
68871;BME280;55906;52.278;6.808;2023-07-29T04:24:48;100461.69;;;19.49;85.89
68871;BME280;55906;52.278;6.808;2023-07-29T04:27:14;100467.03;;;19.47;85.84
68871;BME280;55906;52.278;6.808;2023-07-29T04:29:41;100460.78;;;19.53;85.62
68871;BME280;55906;52.278;6.808;2023-07-29T04:32:09;100460.72;;;19.56;85.36
68871;BME280;55906;52.278;6.808;2023-07-29T04:34:36;100454.53;;;19.54;85.83
68871;BME280;55906;52.278;6.808;2023-07-29T04:37:02;100455.28;;;19.62;85.55
68871;BME280;55906;52.278;6.808;2023-07-29T04:39:29;100456.25;;;19.58;85.60
68871;BME280;55906;52.278;6.808;2023-07-29T04:41:56;100463.25;;;19.64;85.47
68871;BME280;55906;52.278;6.808;2023-07-29T04:44:23;100464.13;;;19.66;85.36
68871;BME280;55906;52.278;6.808;2023-07-29T04:46:50;100462.44;;;19.60;85.50
68871;BME280;55906;52.278;6.808;2023-07-29T04:49:18;100472.19;;;19.63;85.45
68871;BME280;55906;52.278;6.808;2023-07-29T04:51:44;100462.38;;;19.63;85.02
68871;BME280;55906;52.278;6.808;2023-07-29T04:54:11;100473.06;;;19.63;85.22
68871;BME280;55906;52.278;6.808;2023-07-29T04:56:37;100467.75;;;19.62;85.46
68871;BME280;55906;52.278;6.808;2023-07-29T04:59:04;100480.31;;;19.55;86.20
68871;BME280;55906;52.278;6.808;2023-07-29T05:01:33;100474.13;;;19.53;86.30
68871;BME280;55906;52.278;6.808;2023-07-29T05:04:00;100477.53;;;19.61;86.44
68871;BME280;55906;52.278;6.808;2023-07-29T05:06:28;100469.53;;;19.61;86.85
68871;BME280;55906;52.278;6.808;2023-07-29T05:08:57;100464.19;;;19.61;87.13
68871;BME280;55906;52.278;6.808;2023-07-29T05:11:23;100466.84;;;19.63;86.95
68871;BME280;55906;52.278;6.808;2023-07-29T05:13:51;100461.44;;;19.66;86.79
68871;BME280;55906;52.278;6.808;2023-07-29T05:16:17;100457.94;;;19.64;87.84
68871;BME280;55906;52.278;6.808;2023-07-29T05:18:44;100461.47;;;19.64;88.06
68871;BME280;55906;52.278;6.808;2023-07-29T05:21:11;100453.47;;;19.64;88.47
68871;BME280;55906;52.278;6.808;2023-07-29T05:23:41;100453.47;;;19.64;88.33
68871;BME280;55906;52.278;6.808;2023-07-29T05:26:07;100461.63;;;19.57;89.62
68871;BME280;55906;52.278;6.808;2023-07-29T05:28:34;100457.94;;;19.62;89.04
68871;BME280;55906;52.278;6.808;2023-07-29T05:31:00;100465.25;;;19.53;90.02
68871;BME280;55906;52.278;6.808;2023-07-29T05:33:27;100466.13;;;19.53;90.22
68871;BME280;55906;52.278;6.808;2023-07-29T05:35:54;100458.06;;;19.56;89.84
68871;BME280;55906;52.278;6.808;2023-07-29T05:38:21;100463.44;;;19.53;89.53
68871;BME280;55906;52.278;6.808;2023-07-29T05:40:49;100470.38;;;19.65;88.87
68871;BME280;55906;52.278;6.808;2023-07-29T05:43:16;100489.03;;;19.66;88.71
68871;BME280;55906;52.278;6.808;2023-07-29T05:45:42;100491.63;;;19.69;88.50
68871;BME280;55906;52.278;6.808;2023-07-29T05:48:09;100495.09;;;19.74;88.27
68871;BME280;55906;52.278;6.808;2023-07-29T05:50:36;100502.41;;;19.63;88.65
68871;BME280;55906;52.278;6.808;2023-07-29T05:53:02;100500.56;;;19.67;88.30
68871;BME280;55906;52.278;6.808;2023-07-29T05:55:29;100509.53;;;19.63;88.53
68871;BME280;55906;52.278;6.808;2023-07-29T05:57:57;100522.13;;;19.56;88.35
68871;BME280;55906;52.278;6.808;2023-07-29T06:00:24;100520.28;;;19.58;87.75
68871;BME280;55906;52.278;6.808;2023-07-29T06:02:50;100498.84;;;19.64;87.26
68871;BME280;55906;52.278;6.808;2023-07-29T06:05:17;100499.75;;;19.63;86.87
68871;BME280;55906;52.278;6.808;2023-07-29T06:07:44;100507.56;;;19.74;86.76
68871;BME280;55906;52.278;6.808;2023-07-29T06:10:13;100503.06;;;19.77;86.64
68871;BME280;55906;52.278;6.808;2023-07-29T06:12:42;100501.25;;;19.79;85.89
68871;BME280;55906;52.278;6.808;2023-07-29T06:15:11;100501.19;;;19.83;85.27
68871;BME280;55906;52.278;6.808;2023-07-29T06:17:38;100508.41;;;19.77;84.40
68871;BME280;55906;52.278;6.808;2023-07-29T06:20:06;100519.06;;;19.77;84.43
68871;BME280;55906;52.278;6.808;2023-07-29T06:22:33;100518.09;;;19.83;83.97
68871;BME280;55906;52.278;6.808;2023-07-29T06:24:59;100519.88;;;19.83;82.42
68871;BME280;55906;52.278;6.808;2023-07-29T06:27:26;100516.16;;;19.91;82.74
68871;BME280;55906;52.278;6.808;2023-07-29T06:29:53;100520.28;;;20.09;81.48
68871;BME280;55906;52.278;6.808;2023-07-29T06:32:21;100515.69;;;20.17;80.43
68871;BME280;55906;52.278;6.808;2023-07-29T06:34:48;100540.44;;;20.25;80.19
68871;BME280;55906;52.278;6.808;2023-07-29T06:37:14;100526.34;;;20.17;79.10
68871;BME280;55906;52.278;6.808;2023-07-29T06:39:41;100535.28;;;20.16;78.57
68871;BME280;55906;52.278;6.808;2023-07-29T06:42:08;100538.78;;;20.20;78.36
68871;BME280;55906;52.278;6.808;2023-07-29T06:44:35;100539.84;;;20.11;77.38
68871;BME280;55906;52.278;6.808;2023-07-29T06:47:01;100540.78;;;20.07;76.76
68871;BME280;55906;52.278;6.808;2023-07-29T06:49:30;100540.06;;;19.99;77.02
68871;BME280;55906;52.278;6.808;2023-07-29T06:51:56;100547.09;;;20.03;77.21
68871;BME280;55906;52.278;6.808;2023-07-29T06:54:24;100533.75;;;20.03;76.85
68871;BME280;55906;52.278;6.808;2023-07-29T06:56:51;100531.03;;;20.06;76.96
68871;BME280;55906;52.278;6.808;2023-07-29T06:59:17;100543.50;;;20.05;76.25
68871;BME280;55906;52.278;6.808;2023-07-29T07:01:44;100544.25;;;20.12;76.26
68871;BME280;55906;52.278;6.808;2023-07-29T07:04:10;100544.25;;;20.12;76.31
68871;BME280;55906;52.278;6.808;2023-07-29T07:06:38;100544.94;;;20.23;75.82
68871;BME280;55906;52.278;6.808;2023-07-29T07:09:05;100544.97;;;20.22;75.75
68871;BME280;55906;52.278;6.808;2023-07-29T07:11:32;100558.41;;;20.17;75.23
68871;BME280;55906;52.278;6.808;2023-07-29T07:13:59;100554.91;;;20.13;75.41
68871;BME280;55906;52.278;6.808;2023-07-29T07:16:25;100553.88;;;20.22;75.22
68871;BME280;55906;52.278;6.808;2023-07-29T07:18:54;100554.53;;;20.33;75.43
68871;BME280;55906;52.278;6.808;2023-07-29T07:21:21;100559.16;;;20.25;74.57
68871;BME280;55906;52.278;6.808;2023-07-29T07:23:50;100551.75;;;20.41;74.27
68871;BME280;55906;52.278;6.808;2023-07-29T07:26:17;100551.44;;;20.56;74.26
68871;BME280;55906;52.278;6.808;2023-07-29T07:28:43;100558.22;;;20.74;73.57
68871;BME280;55906;52.278;6.808;2023-07-29T07:31:10;100560.97;;;20.69;73.43
68871;BME280;55906;52.278;6.808;2023-07-29T07:33:37;100553.81;;;20.71;72.82
68871;BME280;55906;52.278;6.808;2023-07-29T07:36:04;100545.72;;;20.74;72.92
68871;BME280;55906;52.278;6.808;2023-07-29T07:38:30;100547.38;;;20.80;73.01
68871;BME280;55906;52.278;6.808;2023-07-29T07:40:58;100537.41;;;20.90;71.90
68871;BME280;55906;52.278;6.808;2023-07-29T07:43:25;100537.53;;;20.84;72.25
68871;BME280;55906;52.278;6.808;2023-07-29T07:45:57;100538.56;;;20.76;72.41
68871;BME280;55906;52.278;6.808;2023-07-29T07:48:25;100544.81;;;20.75;72.46
68871;BME280;55906;52.278;6.808;2023-07-29T07:50:51;100534.34;;;20.65;72.42
68871;BME280;55906;52.278;6.808;2023-07-29T07:53:18;100529.69;;;20.74;72.10
68871;BME280;55906;52.278;6.808;2023-07-29T07:55:45;100536.78;;;20.75;72.48
68871;BME280;55906;52.278;6.808;2023-07-29T07:58:13;100538.00;;;21.02;71.46
68871;BME280;55906;52.278;6.808;2023-07-29T08:00:39;100548.50;;;21.12;71.43
68871;BME280;55906;52.278;6.808;2023-07-29T08:03:06;100546.50;;;21.21;71.10
68871;BME280;55906;52.278;6.808;2023-07-29T08:05:33;100539.53;;;21.14;70.69
68871;BME280;55906;52.278;6.808;2023-07-29T08:07:59;100545.38;;;21.33;70.78
68871;BME280;55906;52.278;6.808;2023-07-29T08:10:26;100548.88;;;21.35;70.14
68871;BME280;55906;52.278;6.808;2023-07-29T08:12:53;100549.22;;;21.58;69.76
68871;BME280;55906;52.278;6.808;2023-07-29T08:15:21;100538.31;;;21.66;69.29
68871;BME280;55906;52.278;6.808;2023-07-29T08:17:48;100543.25;;;21.83;68.66
68871;BME280;55906;52.278;6.808;2023-07-29T08:20:15;100541.16;;;21.94;68.00
68871;BME280;55906;52.278;6.808;2023-07-29T08:22:41;100540.75;;;22.12;67.77
68871;BME280;55906;52.278;6.808;2023-07-29T08:25:08;100544.34;;;22.11;67.71
68871;BME280;55906;52.278;6.808;2023-07-29T08:27:35;100528.81;;;22.24;66.91
68871;BME280;55906;52.278;6.808;2023-07-29T08:30:01;100528.84;;;22.22;66.55
68871;BME280;55906;52.278;6.808;2023-07-29T08:32:30;100537.09;;;22.47;66.03
68871;BME280;55906;52.278;6.808;2023-07-29T08:34:56;100551.38;;;22.48;65.20
68871;BME280;55906;52.278;6.808;2023-07-29T08:37:23;100541.75;;;22.41;65.48
68871;BME280;55906;52.278;6.808;2023-07-29T08:39:49;100544.75;;;22.61;64.63
68871;BME280;55906;52.278;6.808;2023-07-29T08:42:19;100535.31;;;22.77;65.07
68871;BME280;55906;52.278;6.808;2023-07-29T08:44:49;100537.00;;;22.81;64.45
68871;BME280;55906;52.278;6.808;2023-07-29T08:47:16;100544.75;;;22.92;63.91
68871;BME280;55906;52.278;6.808;2023-07-29T08:49:45;100530.22;;;22.99;63.45
68871;BME280;55906;52.278;6.808;2023-07-29T08:52:12;100539.16;;;22.99;63.78
68871;BME280;55906;52.278;6.808;2023-07-29T08:54:40;100543.72;;;22.96;63.67
68871;BME280;55906;52.278;6.808;2023-07-29T08:57:07;100545.16;;;23.08;62.87
68871;BME280;55906;52.278;6.808;2023-07-29T08:59:34;100544.19;;;23.38;62.44
68871;BME280;55906;52.278;6.808;2023-07-29T09:02:01;100533.19;;;23.47;61.08
68871;BME280;55906;52.278;6.808;2023-07-29T09:04:27;100524.25;;;23.75;60.99
68871;BME280;55906;52.278;6.808;2023-07-29T09:06:56;100529.31;;;23.84;60.94
68871;BME280;55906;52.278;6.808;2023-07-29T09:09:22;100527.16;;;23.93;60.07
68871;BME280;55906;52.278;6.808;2023-07-29T09:11:50;100533.38;;;23.96;60.03
68871;BME280;55906;52.278;6.808;2023-07-29T09:14:17;100540.13;;;24.07;60.01
68871;BME280;55906;52.278;6.808;2023-07-29T09:16:43;100546.06;;;24.17;58.12
68871;BME280;55906;52.278;6.808;2023-07-29T09:19:10;100543.59;;;24.11;59.23
68871;BME280;55906;52.278;6.808;2023-07-29T09:21:38;100541.56;;;24.67;57.73
68871;BME280;55906;52.278;6.808;2023-07-29T09:24:07;100535.28;;;24.92;56.22
68871;BME280;55906;52.278;6.808;2023-07-29T09:26:34;100544.13;;;25.18;56.59
68871;BME280;55906;52.278;6.808;2023-07-29T09:29:01;100543.53;;;24.87;55.87
68871;BME280;55906;52.278;6.808;2023-07-29T09:31:28;100550.38;;;24.72;55.29
68871;BME280;55906;52.278;6.808;2023-07-29T09:33:57;100535.66;;;24.33;55.49
68871;BME280;55906;52.278;6.808;2023-07-29T09:36:24;100543.69;;;24.34;56.22
68871;BME280;55906;52.278;6.808;2023-07-29T09:38:55;100553.00;;;23.98;57.18
68871;BME280;55906;52.278;6.808;2023-07-29T09:41:24;100546.88;;;23.94;57.64
68871;BME280;55906;52.278;6.808;2023-07-29T09:43:56;100546.66;;;23.74;58.43
68871;BME280;55906;52.278;6.808;2023-07-29T09:46:24;100559.34;;;23.41;59.16
68871;BME280;55906;52.278;6.808;2023-07-29T09:48:53;100557.22;;;23.52;59.11
68871;BME280;55906;52.278;6.808;2023-07-29T09:51:20;100561.13;;;23.42;58.93
68871;BME280;55906;52.278;6.808;2023-07-29T09:53:48;100566.56;;;23.39;59.59
68871;BME280;55906;52.278;6.808;2023-07-29T09:56:16;100566.78;;;23.31;59.50
68871;BME280;55906;52.278;6.808;2023-07-29T09:58:44;100565.88;;;23.32;59.43
68871;BME280;55906;52.278;6.808;2023-07-29T10:01:12;100563.81;;;23.40;59.66
68871;BME280;55906;52.278;6.808;2023-07-29T10:03:39;100582.06;;;23.29;60.25
68871;BME280;55906;52.278;6.808;2023-07-29T10:06:07;100573.56;;;23.15;60.75
68871;BME280;55906;52.278;6.808;2023-07-29T10:08:34;100566.63;;;23.08;61.29
68871;BME280;55906;52.278;6.808;2023-07-29T10:11:05;100561.16;;;23.11;61.22
68871;BME280;55906;52.278;6.808;2023-07-29T10:13:31;100574.44;;;23.15;61.11
68871;BME280;55906;52.278;6.808;2023-07-29T10:16:00;100557.72;;;23.35;60.17
68871;BME280;55906;52.278;6.808;2023-07-29T10:18:28;100551.66;;;23.58;59.77
68871;BME280;55906;52.278;6.808;2023-07-29T10:20:57;100564.50;;;23.76;58.83
68871;BME280;55906;52.278;6.808;2023-07-29T10:23:25;100558.44;;;23.70;59.19
68871;BME280;55906;52.278;6.808;2023-07-29T10:25:55;100563.72;;;23.73;58.94
68871;BME280;55906;52.278;6.808;2023-07-29T10:28:25;100559.63;;;23.87;58.82
68871;BME280;55906;52.278;6.808;2023-07-29T10:30:52;100559.00;;;24.06;59.04
68871;BME280;55906;52.278;6.808;2023-07-29T10:33:21;100548.72;;;23.92;58.50
68871;BME280;55906;52.278;6.808;2023-07-29T10:35:48;100546.03;;;23.92;59.24
68871;BME280;55906;52.278;6.808;2023-07-29T10:38:15;100553.16;;;23.93;59.08
68871;BME280;55906;52.278;6.808;2023-07-29T10:40:46;100553.16;;;23.93;58.24
68871;BME280;55906;52.278;6.808;2023-07-29T10:43:19;100543.63;;;23.84;58.82
68871;BME280;55906;52.278;6.808;2023-07-29T10:45:46;100556.38;;;24.04;58.52
68871;BME280;55906;52.278;6.808;2023-07-29T10:48:41;100541.06;;;24.33;57.52
68871;BME280;55906;52.278;6.808;2023-07-29T10:51:27;100546.28;;;24.61;56.51
68871;BME280;55906;52.278;6.808;2023-07-29T10:53:56;100554.69;;;24.76;56.30
68871;BME280;55906;52.278;6.808;2023-07-29T10:56:28;100554.66;;;24.78;55.69
68871;BME280;55906;52.278;6.808;2023-07-29T10:58:56;100558.94;;;25.07;54.37
68871;BME280;55906;52.278;6.808;2023-07-29T11:01:28;100555.06;;;25.14;53.14
68871;BME280;55906;52.278;6.808;2023-07-29T11:04:23;100550.13;;;25.25;53.61
68871;BME280;55906;52.278;6.808;2023-07-29T11:07:20;100549.66;;;25.37;53.34
68871;BME280;55906;52.278;6.808;2023-07-29T11:09:54;100545.66;;;25.02;53.80
68871;BME280;55906;52.278;6.808;2023-07-29T11:12:51;100544.03;;;24.98;53.54
68871;BME280;55906;52.278;6.808;2023-07-29T11:15:21;100540.94;;;25.31;52.96
68871;BME280;55906;52.278;6.808;2023-07-29T11:17:50;100537.94;;;25.60;52.97
68871;BME280;55906;52.278;6.808;2023-07-29T11:20:20;100542.56;;;25.57;52.98
68871;BME280;55906;52.278;6.808;2023-07-29T11:22:47;100538.63;;;25.43;53.07
68871;BME280;55906;52.278;6.808;2023-07-29T11:25:16;100547.91;;;25.36;52.99
68871;BME280;55906;52.278;6.808;2023-07-29T11:27:43;100541.91;;;25.06;53.63
68871;BME280;55906;52.278;6.808;2023-07-29T11:30:11;100549.91;;;24.84;53.32
68871;BME280;55906;52.278;6.808;2023-07-29T11:32:39;100552.19;;;24.47;54.99
68871;BME280;55906;52.278;6.808;2023-07-29T11:35:07;100544.13;;;24.47;54.64
68871;BME280;55906;52.278;6.808;2023-07-29T11:37:36;100552.28;;;24.44;55.12
68871;BME280;55906;52.278;6.808;2023-07-29T11:40:05;100543.44;;;24.15;55.36
68871;BME280;55906;52.278;6.808;2023-07-29T11:42:33;100541.78;;;24.11;56.11
68871;BME280;55906;52.278;6.808;2023-07-29T11:45:00;100536.72;;;24.02;56.42
68871;BME280;55906;52.278;6.808;2023-07-29T11:47:26;100546.44;;;24.06;56.57
68871;BME280;55906;52.278;6.808;2023-07-29T11:49:53;100539.69;;;24.19;56.00
68871;BME280;55906;52.278;6.808;2023-07-29T11:52:20;100538.88;;;24.17;55.83
68871;BME280;55906;52.278;6.808;2023-07-29T11:54:49;100538.31;;;24.08;55.82
68871;BME280;55906;52.278;6.808;2023-07-29T11:57:16;100537.53;;;24.31;55.46
68871;BME280;55906;52.278;6.808;2023-07-29T11:59:44;100540.13;;;24.34;55.24
68871;BME280;55906;52.278;6.808;2023-07-29T12:02:15;100531.72;;;24.43;54.66
68871;BME280;55906;52.278;6.808;2023-07-29T12:04:43;100530.47;;;24.76;53.93
68871;BME280;55906;52.278;6.808;2023-07-29T12:07:10;100538.16;;;24.87;53.09
68871;BME280;55906;52.278;6.808;2023-07-29T12:09:39;100536.44;;;24.84;53.51
68871;BME280;55906;52.278;6.808;2023-07-29T12:12:08;100531.06;;;24.84;53.43
68871;BME280;55906;52.278;6.808;2023-07-29T12:14:35;100541.78;;;24.61;54.22
68871;BME280;55906;52.278;6.808;2023-07-29T12:17:03;100540.97;;;24.59;53.48
68871;BME280;55906;52.278;6.808;2023-07-29T12:19:34;100533.53;;;24.42;53.88
68871;BME280;55906;52.278;6.808;2023-07-29T12:22:01;100541.28;;;24.25;54.63
68871;BME280;55906;52.278;6.808;2023-07-29T12:24:29;100541.88;;;24.08;55.39
68871;BME280;55906;52.278;6.808;2023-07-29T12:26:56;100544.81;;;23.76;57.44
68871;BME280;55906;52.278;6.808;2023-07-29T12:29:25;100548.09;;;23.57;58.33
68871;BME280;55906;52.278;6.808;2023-07-29T12:31:57;100545.94;;;23.39;59.94
68871;BME280;55906;52.278;6.808;2023-07-29T12:34:25;100548.09;;;23.57;59.62
68871;BME280;55906;52.278;6.808;2023-07-29T12:36:52;100542.06;;;23.49;60.19
68871;BME280;55906;52.278;6.808;2023-07-29T12:39:21;100539.94;;;23.60;60.02
68871;BME280;55906;52.278;6.808;2023-07-29T12:41:49;100548.06;;;23.59;60.64
68871;BME280;55906;52.278;6.808;2023-07-29T12:44:16;100546.34;;;23.27;65.75
68871;BME280;55906;52.278;6.808;2023-07-29T12:46:45;100554.78;;;22.85;69.08
68871;BME280;55906;52.278;6.808;2023-07-29T12:49:12;100552.53;;;22.70;69.42
68871;BME280;55906;52.278;6.808;2023-07-29T12:51:38;100554.75;;;22.54;70.23
68871;BME280;55906;52.278;6.808;2023-07-29T12:54:05;100550.75;;;22.38;71.24